sensor_id;sensor_type;location;lat;lon;timestamp;P1;durP1;ratioP1;P2;durP2;ratioP2
84660;SDS011;74889;52.240;20.902;2024-03-08T00:01:20;76.80;;;35.60;;
84660;SDS011;74889;52.240;20.902;2024-03-08T00:03:47;69.80;;;35.00;;
84660;SDS011;74889;52.240;20.902;2024-03-08T00:06:13;61.60;;;33.80;;
84660;SDS011;74889;52.240;20.902;2024-03-08T00:08:38;74.50;;;35.20;;
84660;SDS011;74889;52.240;20.902;2024-03-08T00:11:05;73.30;;;35.60;;
84660;SDS011;74889;52.240;20.902;2024-03-08T00:13:31;68.00;;;35.50;;
84660;SDS011;74889;52.240;20.902;2024-03-08T00:15:57;77.70;;;37.20;;
84660;SDS011;74889;52.240;20.902;2024-03-08T00:18:24;87.50;;;37.40;;
84660;SDS011;74889;52.240;20.902;2024-03-08T00:20:50;90.80;;;41.60;;
84660;SDS011;74889;52.240;20.902;2024-03-08T00:23:16;96.80;;;42.70;;
84660;SDS011;74889;52.240;20.902;2024-03-08T00:25:41;99.10;;;43.60;;
84660;SDS011;74889;52.240;20.902;2024-03-08T00:28:08;98.30;;;43.70;;
84660;SDS011;74889;52.240;20.902;2024-03-08T00:30:34;89.20;;;40.40;;
84660;SDS011;74889;52.240;20.902;2024-03-08T00:32:59;90.40;;;40.80;;
84660;SDS011;74889;52.240;20.902;2024-03-08T00:35:25;92.20;;;41.70;;
84660;SDS011;74889;52.240;20.902;2024-03-08T00:37:51;87.70;;;41.30;;
84660;SDS011;74889;52.240;20.902;2024-03-08T00:40:16;85.00;;;39.10;;
84660;SDS011;74889;52.240;20.902;2024-03-08T00:42:42;90.40;;;39.70;;
84660;SDS011;74889;52.240;20.902;2024-03-08T00:45:10;87.40;;;39.20;;
84660;SDS011;74889;52.240;20.902;2024-03-08T00:47:40;77.80;;;38.10;;
84660;SDS011;74889;52.240;20.902;2024-03-08T00:50:09;78.10;;;37.90;;
84660;SDS011;74889;52.240;20.902;2024-03-08T00:52:35;76.20;;;35.70;;
84660;SDS011;74889;52.240;20.902;2024-03-08T00:55:02;73.70;;;36.80;;
84660;SDS011;74889;52.240;20.902;2024-03-08T00:57:28;77.50;;;37.90;;
84660;SDS011;74889;52.240;20.902;2024-03-08T00:59:55;77.90;;;38.00;;
84660;SDS011;74889;52.240;20.902;2024-03-08T01:02:21;80.40;;;38.40;;
84660;SDS011;74889;52.240;20.902;2024-03-08T01:04:48;77.60;;;36.60;;
84660;SDS011;74889;52.240;20.902;2024-03-08T01:07:14;74.60;;;37.90;;
84660;SDS011;74889;52.240;20.902;2024-03-08T01:09:40;76.60;;;36.80;;
84660;SDS011;74889;52.240;20.902;2024-03-08T01:12:07;79.50;;;37.70;;
84660;SDS011;74889;52.240;20.902;2024-03-08T01:14:33;66.40;;;35.40;;
84660;SDS011;74889;52.240;20.902;2024-03-08T01:16:59;75.00;;;35.40;;
84660;SDS011;74889;52.240;20.902;2024-03-08T01:19:25;73.70;;;36.90;;
84660;SDS011;74889;52.240;20.902;2024-03-08T01:21:52;76.40;;;36.00;;
84660;SDS011;74889;52.240;20.902;2024-03-08T01:24:18;79.00;;;37.40;;
84660;SDS011;74889;52.240;20.902;2024-03-08T01:26:43;72.30;;;36.30;;
84660;SDS011;74889;52.240;20.902;2024-03-08T01:29:10;76.50;;;37.20;;
84660;SDS011;74889;52.240;20.902;2024-03-08T01:31:35;75.60;;;37.40;;
84660;SDS011;74889;52.240;20.902;2024-03-08T01:34:01;73.40;;;36.70;;
84660;SDS011;74889;52.240;20.902;2024-03-08T01:36:28;74.90;;;36.60;;
84660;SDS011;74889;52.240;20.902;2024-03-08T01:38:54;64.60;;;33.30;;
84660;SDS011;74889;52.240;20.902;2024-03-08T01:41:19;68.30;;;35.20;;
84660;SDS011;74889;52.240;20.902;2024-03-08T01:43:45;66.30;;;34.60;;
84660;SDS011;74889;52.240;20.902;2024-03-08T01:46:12;71.00;;;35.90;;
84660;SDS011;74889;52.240;20.902;2024-03-08T01:48:41;70.80;;;36.10;;
84660;SDS011;74889;52.240;20.902;2024-03-08T01:51:09;75.10;;;36.90;;
84660;SDS011;74889;52.240;20.902;2024-03-08T01:53:34;65.00;;;34.50;;
84660;SDS011;74889;52.240;20.902;2024-03-08T01:56:00;66.80;;;36.90;;
84660;SDS011;74889;52.240;20.902;2024-03-08T01:58:28;69.00;;;36.60;;
84660;SDS011;74889;52.240;20.902;2024-03-08T02:00:56;70.40;;;36.10;;
84660;SDS011;74889;52.240;20.902;2024-03-08T02:03:24;70.60;;;36.60;;
84660;SDS011;74889;52.240;20.902;2024-03-08T02:05:50;67.00;;;36.60;;
84660;SDS011;74889;52.240;20.902;2024-03-08T02:08:16;76.70;;;38.10;;
84660;SDS011;74889;52.240;20.902;2024-03-08T02:10:46;75.40;;;37.10;;
84660;SDS011;74889;52.240;20.902;2024-03-08T02:13:11;70.00;;;37.80;;
84660;SDS011;74889;52.240;20.902;2024-03-08T02:15:56;78.50;;;41.60;;
84660;SDS011;74889;52.240;20.902;2024-03-08T02:18:28;71.80;;;38.90;;
84660;SDS011;74889;52.240;20.902;2024-03-08T02:20:55;74.30;;;39.10;;
84660;SDS011;74889;52.240;20.902;2024-03-08T02:23:23;72.60;;;38.20;;
84660;SDS011;74889;52.240;20.902;2024-03-08T02:25:50;74.50;;;38.90;;
84660;SDS011;74889;52.240;20.902;2024-03-08T02:28:17;76.80;;;38.60;;
84660;SDS011;74889;52.240;20.902;2024-03-08T02:30:47;77.80;;;37.80;;
84660;SDS011;74889;52.240;20.902;2024-03-08T02:33:16;77.30;;;38.90;;
84660;SDS011;74889;52.240;20.902;2024-03-08T02:35:43;71.90;;;38.70;;
84660;SDS011;74889;52.240;20.902;2024-03-08T02:38:15;77.10;;;38.70;;
84660;SDS011;74889;52.240;20.902;2024-03-08T02:40:44;80.80;;;38.70;;
84660;SDS011;74889;52.240;20.902;2024-03-08T02:43:11;75.20;;;40.80;;
84660;SDS011;74889;52.240;20.902;2024-03-08T02:45:38;75.40;;;37.80;;
84660;SDS011;74889;52.240;20.902;2024-03-08T02:48:04;76.00;;;38.20;;
84660;SDS011;74889;52.240;20.902;2024-03-08T02:50:32;69.70;;;37.30;;
84660;SDS011;74889;52.240;20.902;2024-03-08T02:53:01;74.40;;;38.50;;
84660;SDS011;74889;52.240;20.902;2024-03-08T02:55:27;82.50;;;41.30;;
84660;SDS011;74889;52.240;20.902;2024-03-08T02:57:53;70.40;;;36.70;;
84660;SDS011;74889;52.240;20.902;2024-03-08T03:00:20;83.20;;;38.90;;
84660;SDS011;74889;52.240;20.902;2024-03-08T03:02:46;75.80;;;38.90;;
84660;SDS011;74889;52.240;20.902;2024-03-08T03:05:12;76.10;;;38.50;;
84660;SDS011;74889;52.240;20.902;2024-03-08T03:07:38;75.00;;;37.00;;
84660;SDS011;74889;52.240;20.902;2024-03-08T03:10:03;75.50;;;38.60;;
84660;SDS011;74889;52.240;20.902;2024-03-08T03:12:30;68.30;;;37.00;;
84660;SDS011;74889;52.240;20.902;2024-03-08T03:14:56;75.90;;;37.00;;
84660;SDS011;74889;52.240;20.902;2024-03-08T03:17:23;76.60;;;38.50;;
84660;SDS011;74889;52.240;20.902;2024-03-08T03:19:50;71.10;;;37.20;;
84660;SDS011;74889;52.240;20.902;2024-03-08T03:22:20;72.80;;;37.50;;
84660;SDS011;74889;52.240;20.902;2024-03-08T03:24:45;79.60;;;37.40;;
84660;SDS011;74889;52.240;20.902;2024-03-08T03:27:12;76.40;;;37.00;;
84660;SDS011;74889;52.240;20.902;2024-03-08T03:29:39;74.90;;;37.70;;
84660;SDS011;74889;52.240;20.902;2024-03-08T03:32:08;74.40;;;37.70;;
84660;SDS011;74889;52.240;20.902;2024-03-08T03:34:34;74.60;;;38.40;;
84660;SDS011;74889;52.240;20.902;2024-03-08T03:37:03;74.80;;;39.40;;
84660;SDS011;74889;52.240;20.902;2024-03-08T03:39:30;82.90;;;39.70;;
84660;SDS011;74889;52.240;20.902;2024-03-08T03:42:14;79.10;;;37.70;;
84660;SDS011;74889;52.240;20.902;2024-03-08T03:44:44;76.70;;;39.30;;
84660;SDS011;74889;52.240;20.902;2024-03-08T03:47:13;72.00;;;37.80;;
84660;SDS011;74889;52.240;20.902;2024-03-08T03:49:42;80.30;;;38.10;;
84660;SDS011;74889;52.240;20.902;2024-03-08T03:52:08;75.30;;;38.00;;
84660;SDS011;74889;52.240;20.902;2024-03-08T03:54:35;83.30;;;39.80;;
84660;SDS011;74889;52.240;20.902;2024-03-08T03:57:01;74.20;;;40.40;;
84660;SDS011;74889;52.240;20.902;2024-03-08T03:59:29;73.70;;;39.00;;
84660;SDS011;74889;52.240;20.902;2024-03-08T04:01:54;81.90;;;40.60;;
84660;SDS011;74889;52.240;20.902;2024-03-08T04:04:23;80.80;;;40.30;;
84660;SDS011;74889;52.240;20.902;2024-03-08T04:06:50;81.20;;;42.40;;
84660;SDS011;74889;52.240;20.902;2024-03-08T04:09:16;86.60;;;41.70;;
84660;SDS011;74889;52.240;20.902;2024-03-08T04:11:45;81.30;;;40.10;;
84660;SDS011;74889;52.240;20.902;2024-03-08T04:14:12;83.90;;;40.90;;
84660;SDS011;74889;52.240;20.902;2024-03-08T04:16:37;78.00;;;42.20;;
84660;SDS011;74889;52.240;20.902;2024-03-08T04:19:03;91.00;;;45.40;;
84660;SDS011;74889;52.240;20.902;2024-03-08T04:21:30;89.30;;;42.90;;
84660;SDS011;74889;52.240;20.902;2024-03-08T04:23:55;89.90;;;43.30;;
84660;SDS011;74889;52.240;20.902;2024-03-08T04:26:21;84.50;;;41.50;;
84660;SDS011;74889;52.240;20.902;2024-03-08T04:28:47;84.30;;;42.70;;
84660;SDS011;74889;52.240;20.902;2024-03-08T04:31:13;87.60;;;43.20;;
84660;SDS011;74889;52.240;20.902;2024-03-08T04:33:39;86.50;;;42.00;;
84660;SDS011;74889;52.240;20.902;2024-03-08T04:36:06;83.50;;;41.90;;
84660;SDS011;74889;52.240;20.902;2024-03-08T04:38:34;91.90;;;43.30;;
84660;SDS011;74889;52.240;20.902;2024-03-08T04:40:59;91.20;;;45.60;;
84660;SDS011;74889;52.240;20.902;2024-03-08T04:43:28;89.00;;;43.10;;
84660;SDS011;74889;52.240;20.902;2024-03-08T04:45:55;82.30;;;44.80;;
84660;SDS011;74889;52.240;20.902;2024-03-08T04:48:22;89.50;;;45.40;;
84660;SDS011;74889;52.240;20.902;2024-03-08T04:50:47;94.70;;;45.60;;
84660;SDS011;74889;52.240;20.902;2024-03-08T04:53:13;99.20;;;48.30;;
84660;SDS011;74889;52.240;20.902;2024-03-08T04:55:39;87.10;;;46.10;;
84660;SDS011;74889;52.240;20.902;2024-03-08T04:58:06;84.70;;;46.30;;
84660;SDS011;74889;52.240;20.902;2024-03-08T05:00:31;88.90;;;44.10;;
84660;SDS011;74889;52.240;20.902;2024-03-08T05:02:58;87.50;;;45.60;;
84660;SDS011;74889;52.240;20.902;2024-03-08T05:05:24;91.90;;;46.00;;
84660;SDS011;74889;52.240;20.902;2024-03-08T05:07:50;83.00;;;43.10;;
84660;SDS011;74889;52.240;20.902;2024-03-08T05:10:16;86.30;;;46.40;;
84660;SDS011;74889;52.240;20.902;2024-03-08T05:12:44;89.80;;;45.20;;
84660;SDS011;74889;52.240;20.902;2024-03-08T05:15:10;89.40;;;45.10;;
84660;SDS011;74889;52.240;20.902;2024-03-08T05:17:35;89.00;;;45.50;;
84660;SDS011;74889;52.240;20.902;2024-03-08T05:20:01;89.60;;;44.40;;
84660;SDS011;74889;52.240;20.902;2024-03-08T05:22:28;95.10;;;44.90;;
84660;SDS011;74889;52.240;20.902;2024-03-08T05:24:54;87.80;;;45.40;;
84660;SDS011;74889;52.240;20.902;2024-03-08T05:27:20;91.50;;;44.90;;
84660;SDS011;74889;52.240;20.902;2024-03-08T05:29:46;104.80;;;46.80;;
84660;SDS011;74889;52.240;20.902;2024-03-08T05:32:12;99.30;;;45.60;;
84660;SDS011;74889;52.240;20.902;2024-03-08T05:34:38;116.90;;;46.40;;
84660;SDS011;74889;52.240;20.902;2024-03-08T05:37:04;85.30;;;44.60;;
84660;SDS011;74889;52.240;20.902;2024-03-08T05:39:29;84.50;;;44.50;;
84660;SDS011;74889;52.240;20.902;2024-03-08T05:41:56;98.80;;;45.40;;
84660;SDS011;74889;52.240;20.902;2024-03-08T05:44:22;93.80;;;47.60;;
84660;SDS011;74889;52.240;20.902;2024-03-08T05:46:48;98.60;;;50.10;;
84660;SDS011;74889;52.240;20.902;2024-03-08T05:49:15;91.10;;;46.10;;
84660;SDS011;74889;52.240;20.902;2024-03-08T05:51:40;99.40;;;49.30;;
84660;SDS011;74889;52.240;20.902;2024-03-08T05:54:07;100.00;;;50.70;;
84660;SDS011;74889;52.240;20.902;2024-03-08T05:56:35;95.70;;;48.70;;
84660;SDS011;74889;52.240;20.902;2024-03-08T05:59:01;106.50;;;48.30;;
84660;SDS011;74889;52.240;20.902;2024-03-08T06:01:27;111.40;;;47.40;;
84660;SDS011;74889;52.240;20.902;2024-03-08T06:03:55;103.30;;;50.20;;
84660;SDS011;74889;52.240;20.902;2024-03-08T06:06:22;96.90;;;49.20;;
84660;SDS011;74889;52.240;20.902;2024-03-08T06:08:49;104.10;;;52.40;;
84660;SDS011;74889;52.240;20.902;2024-03-08T06:11:15;95.20;;;49.60;;
84660;SDS011;74889;52.240;20.902;2024-03-08T06:13:42;110.20;;;52.10;;
84660;SDS011;74889;52.240;20.902;2024-03-08T06:16:09;99.40;;;51.60;;
84660;SDS011;74889;52.240;20.902;2024-03-08T06:18:35;107.70;;;54.60;;
84660;SDS011;74889;52.240;20.902;2024-03-08T06:21:04;102.10;;;53.20;;
84660;SDS011;74889;52.240;20.902;2024-03-08T06:23:34;100.10;;;52.70;;
84660;SDS011;74889;52.240;20.902;2024-03-08T06:26:04;106.00;;;54.50;;
84660;SDS011;74889;52.240;20.902;2024-03-08T06:28:31;106.10;;;53.40;;
84660;SDS011;74889;52.240;20.902;2024-03-08T06:31:04;99.30;;;52.60;;
84660;SDS011;74889;52.240;20.902;2024-03-08T06:33:30;100.00;;;51.30;;
84660;SDS011;74889;52.240;20.902;2024-03-08T06:35:57;108.00;;;52.60;;
84660;SDS011;74889;52.240;20.902;2024-03-08T06:38:23;98.20;;;51.30;;
84660;SDS011;74889;52.240;20.902;2024-03-08T06:40:49;110.40;;;51.20;;
84660;SDS011;74889;52.240;20.902;2024-03-08T06:43:16;115.60;;;49.90;;
84660;SDS011;74889;52.240;20.902;2024-03-08T06:45:46;136.10;;;54.10;;
84660;SDS011;74889;52.240;20.902;2024-03-08T06:48:15;121.90;;;49.80;;
84660;SDS011;74889;52.240;20.902;2024-03-08T06:50:45;110.60;;;49.60;;
84660;SDS011;74889;52.240;20.902;2024-03-08T06:53:12;121.00;;;50.90;;
84660;SDS011;74889;52.240;20.902;2024-03-08T06:55:38;150.00;;;52.40;;
84660;SDS011;74889;52.240;20.902;2024-03-08T06:58:04;119.40;;;52.00;;
84660;SDS011;74889;52.240;20.902;2024-03-08T07:00:33;111.80;;;49.30;;
84660;SDS011;74889;52.240;20.902;2024-03-08T07:02:59;102.20;;;50.50;;
84660;SDS011;74889;52.240;20.902;2024-03-08T07:05:27;104.40;;;48.50;;
84660;SDS011;74889;52.240;20.902;2024-03-08T07:07:54;100.90;;;46.50;;
84660;SDS011;74889;52.240;20.902;2024-03-08T07:10:20;105.10;;;49.10;;
84660;SDS011;74889;52.240;20.902;2024-03-08T07:12:54;120.00;;;46.70;;
84660;SDS011;74889;52.240;20.902;2024-03-08T07:15:19;114.70;;;48.00;;
84660;SDS011;74889;52.240;20.902;2024-03-08T07:17:46;136.90;;;48.80;;
84660;SDS011;74889;52.240;20.902;2024-03-08T07:20:13;107.80;;;46.20;;
84660;SDS011;74889;52.240;20.902;2024-03-08T07:22:41;109.70;;;46.00;;
84660;SDS011;74889;52.240;20.902;2024-03-08T07:25:08;101.90;;;41.20;;
84660;SDS011;74889;52.240;20.902;2024-03-08T07:27:47;110.80;;;46.40;;
84660;SDS011;74889;52.240;20.902;2024-03-08T07:30:15;107.10;;;47.70;;
84660;SDS011;74889;52.240;20.902;2024-03-08T07:35:26;95.70;;;45.40;;
84660;SDS011;74889;52.240;20.902;2024-03-08T07:37:52;111.50;;;47.90;;
84660;SDS011;74889;52.240;20.902;2024-03-08T07:40:20;92.60;;;45.50;;
84660;SDS011;74889;52.240;20.902;2024-03-08T07:42:46;98.00;;;47.40;;
84660;SDS011;74889;52.240;20.902;2024-03-08T07:45:12;126.50;;;48.30;;
84660;SDS011;74889;52.240;20.902;2024-03-08T07:47:38;111.30;;;49.00;;
84660;SDS011;74889;52.240;20.902;2024-03-08T07:50:05;103.20;;;46.50;;
84660;SDS011;74889;52.240;20.902;2024-03-08T07:52:33;92.30;;;45.70;;
84660;SDS011;74889;52.240;20.902;2024-03-08T07:55:00;104.50;;;43.60;;
84660;SDS011;74889;52.240;20.902;2024-03-08T07:57:25;109.80;;;48.50;;
84660;SDS011;74889;52.240;20.902;2024-03-08T07:59:51;119.90;;;47.00;;
84660;SDS011;74889;52.240;20.902;2024-03-08T08:02:17;97.30;;;44.80;;
84660;SDS011;74889;52.240;20.902;2024-03-08T08:04:43;111.80;;;45.00;;
84660;SDS011;74889;52.240;20.902;2024-03-08T08:07:13;102.30;;;45.50;;
84660;SDS011;74889;52.240;20.902;2024-03-08T08:09:41;99.90;;;44.40;;
84660;SDS011;74889;52.240;20.902;2024-03-08T08:12:08;88.00;;;39.80;;
84660;SDS011;74889;52.240;20.902;2024-03-08T08:14:38;78.00;;;40.20;;
84660;SDS011;74889;52.240;20.902;2024-03-08T08:17:04;66.40;;;34.40;;
84660;SDS011;74889;52.240;20.902;2024-03-08T08:19:30;58.20;;;33.30;;
84660;SDS011;74889;52.240;20.902;2024-03-08T08:21:58;65.50;;;32.40;;
84660;SDS011;74889;52.240;20.902;2024-03-08T08:24:24;60.80;;;31.60;;
84660;SDS011;74889;52.240;20.902;2024-03-08T08:26:50;75.10;;;33.40;;
84660;SDS011;74889;52.240;20.902;2024-03-08T08:29:18;64.40;;;34.00;;
84660;SDS011;74889;52.240;20.902;2024-03-08T08:31:43;40.20;;;22.60;;
84660;SDS011;74889;52.240;20.902;2024-03-08T08:34:09;39.70;;;20.90;;
84660;SDS011;74889;52.240;20.902;2024-03-08T08:36:37;35.20;;;19.30;;
84660;SDS011;74889;52.240;20.902;2024-03-08T08:39:04;29.90;;;17.10;;
84660;SDS011;74889;52.240;20.902;2024-03-08T08:41:31;30.50;;;17.30;;
84660;SDS011;74889;52.240;20.902;2024-03-08T08:43:57;29.20;;;16.40;;
84660;SDS011;74889;52.240;20.902;2024-03-08T08:46:22;27.40;;;15.30;;
84660;SDS011;74889;52.240;20.902;2024-03-08T08:48:48;30.10;;;15.90;;
84660;SDS011;74889;52.240;20.902;2024-03-08T08:51:13;29.20;;;17.10;;
84660;SDS011;74889;52.240;20.902;2024-03-08T08:53:40;28.30;;;15.40;;
84660;SDS011;74889;52.240;20.902;2024-03-08T08:56:12;25.90;;;13.40;;
84660;SDS011;74889;52.240;20.902;2024-03-08T08:58:42;25.30;;;13.90;;
84660;SDS011;74889;52.240;20.902;2024-03-08T09:01:08;24.10;;;12.70;;
84660;SDS011;74889;52.240;20.902;2024-03-08T09:03:37;24.60;;;14.40;;
84660;SDS011;74889;52.240;20.902;2024-03-08T09:06:03;32.00;;;16.30;;
84660;SDS011;74889;52.240;20.902;2024-03-08T09:08:30;28.30;;;15.50;;
84660;SDS011;74889;52.240;20.902;2024-03-08T09:10:55;29.50;;;15.80;;
84660;SDS011;74889;52.240;20.902;2024-03-08T09:13:21;29.40;;;15.00;;
84660;SDS011;74889;52.240;20.902;2024-03-08T09:15:48;27.10;;;15.10;;
84660;SDS011;74889;52.240;20.902;2024-03-08T09:18:13;28.10;;;14.70;;
84660;SDS011;74889;52.240;20.902;2024-03-08T09:20:40;28.20;;;14.90;;
84660;SDS011;74889;52.240;20.902;2024-03-08T09:23:06;27.90;;;15.90;;
84660;SDS011;74889;52.240;20.902;2024-03-08T09:25:33;29.90;;;16.40;;
84660;SDS011;74889;52.240;20.902;2024-03-08T09:27:59;27.70;;;14.90;;
84660;SDS011;74889;52.240;20.902;2024-03-08T09:30:25;26.40;;;14.60;;
84660;SDS011;74889;52.240;20.902;2024-03-08T09:32:50;27.60;;;14.20;;
84660;SDS011;74889;52.240;20.902;2024-03-08T09:35:16;23.90;;;15.20;;
84660;SDS011;74889;52.240;20.902;2024-03-08T09:37:43;25.00;;;14.40;;
84660;SDS011;74889;52.240;20.902;2024-03-08T09:40:08;29.10;;;17.20;;
84660;SDS011;74889;52.240;20.902;2024-03-08T09:42:34;35.70;;;18.80;;
84660;SDS011;74889;52.240;20.902;2024-03-08T09:45:08;38.90;;;17.80;;
84660;SDS011;74889;52.240;20.902;2024-03-08T09:47:41;28.50;;;16.40;;
84660;SDS011;74889;52.240;20.902;2024-03-08T09:50:08;25.00;;;15.40;;
84660;SDS011;74889;52.240;20.902;2024-03-08T09:52:46;26.90;;;13.40;;
84660;SDS011;74889;52.240;20.902;2024-03-08T09:55:14;28.40;;;16.10;;
84660;SDS011;74889;52.240;20.902;2024-03-08T09:57:43;24.10;;;14.20;;
84660;SDS011;74889;52.240;20.902;2024-03-08T10:02:53;22.30;;;12.90;;
84660;SDS011;74889;52.240;20.902;2024-03-08T10:05:19;29.00;;;16.60;;
84660;SDS011;74889;52.240;20.902;2024-03-08T10:07:46;29.50;;;17.40;;
84660;SDS011;74889;52.240;20.902;2024-03-08T10:10:12;27.30;;;16.90;;
84660;SDS011;74889;52.240;20.902;2024-03-08T10:12:38;29.60;;;16.10;;
84660;SDS011;74889;52.240;20.902;2024-03-08T10:15:06;27.30;;;16.10;;
84660;SDS011;74889;52.240;20.902;2024-03-08T10:17:34;27.50;;;16.00;;
84660;SDS011;74889;52.240;20.902;2024-03-08T10:20:02;35.90;;;16.40;;
84660;SDS011;74889;52.240;20.902;2024-03-08T10:22:29;24.90;;;14.60;;
84660;SDS011;74889;52.240;20.902;2024-03-08T10:24:55;27.50;;;13.80;;
84660;SDS011;74889;52.240;20.902;2024-03-08T10:27:21;28.40;;;15.40;;
84660;SDS011;74889;52.240;20.902;2024-03-08T10:29:50;49.00;;;15.90;;
84660;SDS011;74889;52.240;20.902;2024-03-08T10:32:17;24.00;;;14.00;;
84660;SDS011;74889;52.240;20.902;2024-03-08T10:34:43;30.10;;;15.80;;
84660;SDS011;74889;52.240;20.902;2024-03-08T10:37:15;26.10;;;15.40;;
84660;SDS011;74889;52.240;20.902;2024-03-08T10:39:49;29.60;;;15.20;;
84660;SDS011;74889;52.240;20.902;2024-03-08T10:42:38;28.50;;;14.50;;
84660;SDS011;74889;52.240;20.902;2024-03-08T10:47:41;29.40;;;14.60;;
84660;SDS011;74889;52.240;20.902;2024-03-08T10:50:20;41.70;;;16.30;;
84660;SDS011;74889;52.240;20.902;2024-03-08T10:52:49;31.80;;;14.80;;
84660;SDS011;74889;52.240;20.902;2024-03-08T10:55:19;25.90;;;15.00;;
84660;SDS011;74889;52.240;20.902;2024-03-08T10:57:48;24.80;;;15.60;;
84660;SDS011;74889;52.240;20.902;2024-03-08T11:00:14;25.20;;;14.80;;
84660;SDS011;74889;52.240;20.902;2024-03-08T11:02:44;32.10;;;16.00;;
84660;SDS011;74889;52.240;20.902;2024-03-08T11:05:10;28.20;;;16.70;;
84660;SDS011;74889;52.240;20.902;2024-03-08T11:07:56;30.60;;;16.40;;
84660;SDS011;74889;52.240;20.902;2024-03-08T11:10:22;25.50;;;16.00;;
84660;SDS011;74889;52.240;20.902;2024-03-08T11:12:50;24.50;;;14.90;;
84660;SDS011;74889;52.240;20.902;2024-03-08T11:15:16;27.10;;;15.60;;
84660;SDS011;74889;52.240;20.902;2024-03-08T11:17:47;29.20;;;15.70;;
84660;SDS011;74889;52.240;20.902;2024-03-08T11:20:16;22.90;;;14.30;;
84660;SDS011;74889;52.240;20.902;2024-03-08T11:22:48;28.80;;;15.80;;
84660;SDS011;74889;52.240;20.902;2024-03-08T11:28:06;31.90;;;15.90;;
84660;SDS011;74889;52.240;20.902;2024-03-08T11:30:46;30.30;;;15.30;;
84660;SDS011;74889;52.240;20.902;2024-03-08T11:33:14;24.20;;;15.30;;
84660;SDS011;74889;52.240;20.902;2024-03-08T11:35:41;30.10;;;16.40;;
84660;SDS011;74889;52.240;20.902;2024-03-08T11:38:10;24.90;;;15.70;;
84660;SDS011;74889;52.240;20.902;2024-03-08T11:40:35;38.80;;;16.20;;
84660;SDS011;74889;52.240;20.902;2024-03-08T11:43:01;25.60;;;14.10;;
84660;SDS011;74889;52.240;20.902;2024-03-08T11:45:36;27.20;;;14.80;;
84660;SDS011;74889;52.240;20.902;2024-03-08T11:48:04;33.40;;;15.90;;
84660;SDS011;74889;52.240;20.902;2024-03-08T11:50:31;25.00;;;15.10;;
84660;SDS011;74889;52.240;20.902;2024-03-08T11:53:02;26.60;;;14.60;;
84660;SDS011;74889;52.240;20.902;2024-03-08T11:55:31;30.40;;;15.90;;
84660;SDS011;74889;52.240;20.902;2024-03-08T11:58:04;28.50;;;15.30;;
84660;SDS011;74889;52.240;20.902;2024-03-08T12:00:30;29.60;;;16.00;;
84660;SDS011;74889;52.240;20.902;2024-03-08T12:03:04;27.10;;;15.10;;
84660;SDS011;74889;52.240;20.902;2024-03-08T12:05:32;28.30;;;15.30;;
84660;SDS011;74889;52.240;20.902;2024-03-08T12:08:01;36.60;;;16.20;;
84660;SDS011;74889;52.240;20.902;2024-03-08T12:10:28;27.70;;;15.50;;
84660;SDS011;74889;52.240;20.902;2024-03-08T12:12:55;31.80;;;15.80;;
84660;SDS011;74889;52.240;20.902;2024-03-08T12:15:25;27.80;;;14.60;;
84660;SDS011;74889;52.240;20.902;2024-03-08T12:17:51;27.50;;;15.40;;
84660;SDS011;74889;52.240;20.902;2024-03-08T12:20:20;41.00;;;15.40;;
84660;SDS011;74889;52.240;20.902;2024-03-08T12:22:48;29.20;;;15.60;;
84660;SDS011;74889;52.240;20.902;2024-03-08T12:25:14;29.60;;;15.00;;
84660;SDS011;74889;52.240;20.902;2024-03-08T12:27:41;25.60;;;15.00;;
84660;SDS011;74889;52.240;20.902;2024-03-08T12:30:44;27.00;;;15.70;;
84660;SDS011;74889;52.240;20.902;2024-03-08T12:33:02;27.10;;;15.30;;
84660;SDS011;74889;52.240;20.902;2024-03-08T12:35:29;26.40;;;15.20;;
84660;SDS011;74889;52.240;20.902;2024-03-08T12:37:56;31.60;;;15.80;;
84660;SDS011;74889;52.240;20.902;2024-03-08T12:40:28;25.90;;;15.20;;
84660;SDS011;74889;52.240;20.902;2024-03-08T12:42:55;26.90;;;15.20;;
84660;SDS011;74889;52.240;20.902;2024-03-08T12:45:21;27.50;;;15.00;;
84660;SDS011;74889;52.240;20.902;2024-03-08T12:47:50;25.10;;;14.70;;
84660;SDS011;74889;52.240;20.902;2024-03-08T12:50:17;30.30;;;15.10;;
84660;SDS011;74889;52.240;20.902;2024-03-08T12:52:43;26.40;;;15.70;;
84660;SDS011;74889;52.240;20.902;2024-03-08T12:55:09;34.30;;;15.20;;
84660;SDS011;74889;52.240;20.902;2024-03-08T12:57:35;25.10;;;14.90;;
84660;SDS011;74889;52.240;20.902;2024-03-08T13:00:04;26.60;;;15.10;;
84660;SDS011;74889;52.240;20.902;2024-03-08T13:02:30;27.80;;;14.70;;
84660;SDS011;74889;52.240;20.902;2024-03-08T13:04:57;29.00;;;14.50;;
84660;SDS011;74889;52.240;20.902;2024-03-08T13:07:25;29.30;;;14.70;;
84660;SDS011;74889;52.240;20.902;2024-03-08T13:09:52;30.90;;;14.10;;
84660;SDS011;74889;52.240;20.902;2024-03-08T13:12:19;23.10;;;13.30;;
84660;SDS011;74889;52.240;20.902;2024-03-08T13:14:46;27.00;;;13.20;;
84660;SDS011;74889;52.240;20.902;2024-03-08T13:17:14;26.80;;;13.20;;
84660;SDS011;74889;52.240;20.902;2024-03-08T13:19:40;21.90;;;13.20;;
84660;SDS011;74889;52.240;20.902;2024-03-08T13:22:08;25.90;;;12.20;;
84660;SDS011;74889;52.240;20.902;2024-03-08T13:24:40;25.50;;;13.00;;
84660;SDS011;74889;52.240;20.902;2024-03-08T13:27:09;21.60;;;11.80;;
84660;SDS011;74889;52.240;20.902;2024-03-08T13:29:49;18.60;;;11.80;;
84660;SDS011;74889;52.240;20.902;2024-03-08T13:32:15;23.30;;;12.40;;
84660;SDS011;74889;52.240;20.902;2024-03-08T13:34:42;33.30;;;12.10;;
84660;SDS011;74889;52.240;20.902;2024-03-08T13:37:10;24.40;;;11.90;;
84660;SDS011;74889;52.240;20.902;2024-03-08T13:39:37;20.70;;;12.50;;
84660;SDS011;74889;52.240;20.902;2024-03-08T13:42:10;22.40;;;12.30;;
84660;SDS011;74889;52.240;20.902;2024-03-08T13:44:46;25.40;;;12.50;;
84660;SDS011;74889;52.240;20.902;2024-03-08T13:49:39;19.80;;;11.30;;
84660;SDS011;74889;52.240;20.902;2024-03-08T13:52:05;18.20;;;10.80;;
84660;SDS011;74889;52.240;20.902;2024-03-08T13:54:30;27.90;;;11.30;;
84660;SDS011;74889;52.240;20.902;2024-03-08T13:56:57;21.70;;;10.80;;
84660;SDS011;74889;52.240;20.902;2024-03-08T13:59:24;27.00;;;11.50;;
84660;SDS011;74889;52.240;20.902;2024-03-08T14:01:51;18.70;;;11.10;;
84660;SDS011;74889;52.240;20.902;2024-03-08T14:04:16;19.20;;;10.70;;
84660;SDS011;74889;52.240;20.902;2024-03-08T14:06:43;20.60;;;10.90;;
84660;SDS011;74889;52.240;20.902;2024-03-08T14:09:11;24.80;;;12.00;;
84660;SDS011;74889;52.240;20.902;2024-03-08T14:11:45;26.00;;;11.40;;
84660;SDS011;74889;52.240;20.902;2024-03-08T14:14:11;18.60;;;10.00;;
84660;SDS011;74889;52.240;20.902;2024-03-08T14:16:41;23.10;;;11.20;;
84660;SDS011;74889;52.240;20.902;2024-03-08T14:19:06;20.50;;;10.90;;
84660;SDS011;74889;52.240;20.902;2024-03-08T14:21:32;19.70;;;10.10;;